Time;durP1;ratioP1;P1;durP2;ratioP2;P2;SDS_P1;SDS_P2;PMS_P1;PMS_P2;Temp;Humidity;BMP_temperature;BMP_pressure;BME280_temperature;BME280_humidity;BME280_pressure;Samples;Min_cycle;Max_cycle;Signal;HPM_P1;HPM_P2
2021/06/25 00:00:07;;;;;;;9.20;6.25;;;;;;;17.04;87.70;101027.84;5068304;28;20142;-82
2021/06/25 00:02:36;;;;;;;7.20;5.75;;;;;;;17.00;87.74;101029.06;5047833;28;20122;-83
2021/06/25 00:05:05;;;;;;;8.80;5.38;;;;;;;17.04;88.30;101018.03;5043350;28;20143;-82
2021/06/25 00:07:32;;;;;;;9.30;6.00;;;;;;;17.12;87.43;101004.13;5049099;28;20051;-81
2021/06/25 00:10:00;;;;;;;8.43;5.85;;;;;;;17.12;87.36;101002.31;5078456;28;20078;-82
2021/06/25 00:12:28;;;;;;;9.60;6.70;;;;;;;17.04;87.40;101002.09;5069633;28;20131;-83
2021/06/25 00:14:55;;;;;;;9.18;6.03;;;;;;;17.15;87.47;101004.72;5058731;28;20123;-82
2021/06/25 00:17:22;;;;;;;7.40;5.53;;;;;;;17.13;87.96;101013.81;5078629;28;20036;-83
2021/06/25 00:19:49;;;;;;;6.85;5.30;;;;;;;17.27;87.02;101018.84;5032419;28;20127;-82
2021/06/25 00:22:17;;;;;;;7.63;5.65;;;;;;;17.22;87.31;101026.38;5059402;28;20143;-83
2021/06/25 00:24:44;;;;;;;8.63;5.97;;;;;;;17.31;87.18;101020.31;5083289;28;20075;-83
2021/06/25 00:27:11;;;;;;;8.77;5.88;;;;;;;17.17;88.31;101017.91;5046427;28;20036;-81
2021/06/25 00:29:38;;;;;;;7.13;5.97;;;;;;;17.03;88.60;101015.53;5057603;28;20136;-83
2021/06/25 00:32:06;;;;;;;9.60;6.57;;;;;;;16.88;89.56;101015.75;5060122;28;20119;-82
2021/06/25 00:34:34;;;;;;;11.35;6.68;;;;;;;16.88;89.64;101009.59;5040431;28;20078;-82
2021/06/25 00:37:01;;;;;;;6.82;6.15;;;;;;;16.90;89.78;101008.50;5026835;28;20508;-82
2021/06/25 00:39:28;;;;;;;6.93;5.95;;;;;;;17.01;89.75;101010.31;5059796;28;20148;-83
2021/06/25 00:41:55;;;;;;;7.80;5.43;;;;;;;16.87;90.10;100997.25;5061059;28;20096;-82
2021/06/25 00:44:23;;;;;;;8.90;6.25;;;;;;;16.75;90.66;101001.75;5049766;28;20052;-82
2021/06/25 00:46:50;;;;;;;7.95;6.47;;;;;;;16.82;91.04;101013.59;5045196;28;20155;-82
2021/06/25 00:49:17;;;;;;;8.68;6.40;;;;;;;16.95;90.07;101010.81;5072395;28;20040;-81
2021/06/25 00:51:45;;;;;;;10.25;6.28;;;;;;;16.95;89.63;101010.81;5053583;28;20060;-82
2021/06/25 00:54:13;;;;;;;7.95;6.93;;;;;;;16.83;90.58;101007.28;5060122;28;20066;-80
2021/06/25 00:56:41;;;;;;;12.30;7.45;;;;;;;16.76;90.82;101006.09;5061133;28;20407;-82
2021/06/25 00:59:09;;;;;;;8.65;7.35;;;;;;;16.71;91.38;100998.47;5036435;28;20255;-82
2021/06/25 01:01:36;;;;;;;9.63;6.95;;;;;;;16.88;90.41;100999.78;5066312;28;20060;-82
2021/06/25 01:04:03;;;;;;;9.02;7.55;;;;;;;16.93;90.15;101008.28;5057973;28;20048;-81
2021/06/25 01:06:31;;;;;;;8.48;7.05;;;;;;;16.88;89.82;101009.59;5060925;28;20051;-80
2021/06/25 01:08:59;;;;;;;8.95;7.50;;;;;;;16.70;90.83;101011.84;5083311;28;20078;-82
2021/06/25 01:11:29;;;;;;;13.48;8.45;;;;;;;16.59;91.80;101004.72;5060854;28;20140;-81
2021/06/25 01:13:58;;;;;;;10.38;6.72;;;;;;;16.75;91.19;101001.75;5060968;28;20446;-82
2021/06/25 01:16:25;;;;;;;8.27;7.20;;;;;;;16.78;90.49;100995.34;5054109;28;20251;-84
2021/06/25 01:18:53;;;;;;;8.57;6.93;;;;;;;16.80;90.17;100991.59;5065972;28;20041;-81
2021/06/25 01:21:20;;;;;;;10.50;7.43;;;;;;;16.83;90.55;100987.84;5085681;28;20433;-81
2021/06/25 01:23:47;;;;;;;9.55;7.35;;;;;;;16.74;90.74;100978.78;5066072;28;20336;-82
2021/06/25 01:26:15;;;;;;;14.00;7.68;;;;;;;16.58;91.28;100986.25;5049640;28;20136;-82
2021/06/25 01:28:42;;;;;;;9.63;8.57;;;;;;;16.46;92.04;100978.25;5061339;28;20134;-82
2021/06/25 01:31:09;;;;;;;11.43;7.20;;;;;;;16.65;91.09;100976.81;5039877;28;20039;-82
2021/06/25 01:33:37;;;;;;;11.48;7.10;;;;;;;16.74;90.11;100972.63;5061843;28;20143;-80
2021/06/25 01:36:05;;;;;;;8.93;7.15;;;;;;;16.61;90.93;100964.72;5032341;28;20136;-82
2021/06/25 01:38:32;;;;;;;10.27;6.65;;;;;;;16.50;91.56;100962.09;5058988;28;20128;-81
2021/06/25 01:41:00;;;;;;;10.18;6.50;;;;;;;16.54;91.72;100959.06;5056534;28;20101;-82
2021/06/25 01:43:28;;;;;;;9.30;6.75;;;;;;;16.90;90.17;100954.47;5058058;28;20056;-82
2021/06/25 01:45:55;;;;;;;13.95;8.02;;;;;;;16.85;89.67;100941.56;5060661;28;20669;-82
2021/06/25 01:48:22;;;;;;;9.07;6.93;;;;;;;16.83;89.84;100942.63;5063901;28;20032;-83
2021/06/25 01:50:50;;;;;;;10.48;7.10;;;;;;;16.87;89.95;100954.72;5076945;28;20143;-83
2021/06/25 01:53:18;;;;;;;9.75;7.18;;;;;;;16.89;89.58;100947.47;5068257;28;20139;-83
2021/06/25 01:55:47;;;;;;;7.80;6.20;;;;;;;16.92;89.89;100953.38;5036526;28;20139;-81
2021/06/25 01:58:16;;;;;;;10.57;7.07;;;;;;;16.79;90.04;100943.84;5077599;28;20159;-80
2021/06/25 02:00:48;;;;;;;8.43;6.75;;;;;;;16.76;90.77;100941.44;5056706;28;20075;-81
2021/06/25 02:03:15;;;;;;;10.25;6.70;;;;;;;16.96;89.72;100946.00;5056041;28;20073;-82
2021/06/25 02:05:42;;;;;;;10.77;7.05;;;;;;;16.96;88.89;100938.03;5062142;28;20431;-83
2021/06/25 02:08:10;;;;;;;8.48;7.13;;;;;;;16.96;89.53;100943.34;5059566;28;20145;-82
2021/06/25 02:10:37;;;;;;;9.02;7.30;;;;;;;16.91;89.13;100949.03;5058850;28;20050;-83
2021/06/25 02:13:04;;;;;;;9.77;6.95;;;;;;;16.88;89.61;100937.78;5045790;28;20127;-82
2021/06/25 02:15:32;;;;;;;9.02;7.38;;;;;;;16.94;89.65;100943.47;5060721;28;20080;-80
2021/06/25 02:17:59;;;;;;;11.90;7.45;;;;;;;16.89;90.13;100943.00;5058843;28;20414;-81
2021/06/25 02:20:26;;;;;;;7.25;6.55;;;;;;;16.77;91.04;100943.13;5065323;28;20095;-82
2021/06/25 02:22:54;;;;;;;11.05;7.25;;;;;;;16.69;90.83;100935.72;5058688;28;20418;-82
2021/06/25 02:25:21;;;;;;;14.05;7.72;;;;;;;16.62;90.88;100934.53;5059480;28;20047;-82
2021/06/25 02:27:48;;;;;;;8.52;6.65;;;;;;;16.85;90.01;100938.06;5074621;28;20044;-82
2021/06/25 02:30:17;;;;;;;10.15;6.70;;;;;;;16.82;89.38;100935.63;5062318;28;20075;-82
2021/06/25 02:32:45;;;;;;;9.10;6.60;;;;;;;16.98;88.41;100940.56;5049809;28;20052;-83
2021/06/25 02:35:14;;;;;;;8.68;5.97;;;;;;;16.91;88.62;100941.06;5047082;28;20058;-82
2021/06/25 02:37:42;;;;;;;7.25;6.07;;;;;;;16.98;88.45;100930.78;5055370;28;20040;-82
2021/06/25 02:40:10;;;;;;;7.78;6.93;;;;;;;16.98;88.24;100925.47;5052339;28;20539;-82
2021/06/25 02:42:37;;;;;;;9.52;6.88;;;;;;;16.98;88.50;100928.13;5063242;28;20044;-81
2021/06/25 02:45:05;;;;;;;7.53;6.70;;;;;;;17.02;87.89;100924.25;5056711;28;20081;-81
2021/06/25 02:47:34;;;;;;;9.07;6.30;;;;;;;16.93;88.22;100924.97;5060138;28;20122;-83
2021/06/25 02:50:03;;;;;;;9.07;6.00;;;;;;;16.85;88.39;100916.78;5070242;28;20124;-84
2021/06/25 02:52:30;;;;;;;7.47;5.97;;;;;;;16.84;88.31;100913.28;5071016;28;20139;-80
2021/06/25 02:54:58;;;;;;;9.35;6.10;;;;;;;16.90;87.73;100923.41;5065386;28;20052;-82
2021/06/25 02:57:25;;;;;;;8.95;6.15;;;;;;;17.09;87.31;100916.59;5042390;28;20052;-84
2021/06/25 02:59:52;;;;;;;8.07;5.57;;;;;;;17.15;86.46;100919.59;5067897;28;20126;-84
2021/06/25 03:02:20;;;;;;;9.38;6.22;;;;;;;17.11;86.15;100919.97;5071262;28;20128;-82
2021/06/25 03:04:47;;;;;;;7.78;6.10;;;;;;;17.17;85.88;100919.47;5049602;28;20510;-81
2021/06/25 03:07:14;;;;;;;12.23;6.00;;;;;;;17.18;86.00;100911.38;5074010;28;20048;-84
2021/06/25 03:09:41;;;;;;;12.32;5.63;;;;;;;17.12;86.27;100921.69;5081565;28;20052;-83
2021/06/25 03:12:09;;;;;;;6.50;5.15;;;;;;;17.13;86.26;100915.38;5060154;28;20039;-82
2021/06/25 03:14:37;;;;;;;7.68;5.97;;;;;;;17.07;86.84;100916.72;5046762;28;20146;-82
2021/06/25 03:17:04;;;;;;;8.07;5.40;;;;;;;17.21;86.12;100927.09;5050504;28;20044;-82
2021/06/25 03:19:31;;;;;;;6.43;5.78;;;;;;;17.33;85.00;100930.53;5063149;28;20086;-84
2021/06/25 03:21:59;;;;;;;10.05;5.88;;;;;;;17.40;84.49;100937.06;5079443;28;20050;-83
2021/06/25 03:24:26;;;;;;;6.32;5.72;;;;;;;17.48;84.22;100931.09;5043271;28;20519;-83
2021/06/25 03:26:53;;;;;;;8.23;5.53;;;;;;;17.45;84.11;100926.88;5073872;28;20123;-81
2021/06/25 03:29:20;;;;;;;6.57;5.70;;;;;;;17.39;85.02;100934.53;5025274;28;20463;-83
2021/06/25 03:31:48;;;;;;;8.20;5.05;;;;;;;17.57;84.40;100938.31;5046426;28;20131;-83
2021/06/25 03:34:15;;;;;;;5.28;4.78;;;;;;;17.51;84.28;100930.81;5067930;28;20109;-83
2021/06/25 03:36:42;;;;;;;7.00;5.40;;;;;;;17.55;84.17;100929.59;5054221;28;20648;-82
2021/06/25 03:39:10;;;;;;;6.40;5.30;;;;;;;17.61;83.74;100931.78;5062143;28;20048;-83
2021/06/25 03:41:38;;;;;;;6.00;5.40;;;;;;;17.64;83.78;100933.31;5038369;28;20048;-81
2021/06/25 03:44:05;;;;;;;8.98;5.15;;;;;;;17.64;83.64;100930.66;5068170;28;20151;-80
2021/06/25 03:46:34;;;;;;;7.68;5.90;;;;;;;17.56;83.50;100936.66;5076182;28;20048;-81
2021/06/25 03:49:02;;;;;;;10.35;6.07;;;;;;;17.65;83.80;100940.31;5069372;28;20036;-83
2021/06/25 03:51:29;;;;;;;7.93;5.93;;;;;;;17.49;84.57;100945.25;5079289;28;20202;-81
2021/06/25 03:53:56;;;;;;;8.63;6.50;;;;;;;17.36;85.80;100945.41;5087246;28;20044;-82
2021/06/25 03:56:24;;;;;;;8.95;6.75;;;;;;;17.39;85.75;100945.16;5055967;28;20155;-82
2021/06/25 03:58:51;;;;;;;10.43;6.43;;;;;;;17.41;86.29;100945.88;5068958;28;20545;-84
2021/06/25 04:01:20;;;;;;;10.73;6.72;;;;;;;17.31;86.96;100947.63;5080339;28;20083;-83
2021/06/25 04:03:47;;;;;;;10.52;7.20;;;;;;;17.50;87.12;100947.78;5044406;28;20086;-84
2021/06/25 04:06:15;;;;;;;9.80;7.85;;;;;;;17.63;86.86;100945.78;5061978;28;20044;-85
2021/06/25 04:08:42;;;;;;;12.43;8.05;;;;;;;17.58;87.37;100944.50;5053283;28;20371;-81
2021/06/25 04:11:10;;;;;;;12.15;8.93;;;;;;;17.54;88.37;100945.72;5061729;28;20099;-81
2021/06/25 04:13:37;;;;;;;14.00;8.93;;;;;;;17.52;88.85;100948.50;5065288;28;20127;-85
2021/06/25 04:16:04;;;;;;;15.52;9.02;;;;;;;17.67;88.34;100946.38;5068776;28;20947;-84
2021/06/25 04:18:31;;;;;;;13.20;10.15;;;;;;;17.61;88.88;100942.44;5068762;28;20032;-82
2021/06/25 04:20:59;;;;;;;11.55;9.15;;;;;;;17.67;88.89;100943.72;5069806;28;20040;-81
2021/06/25 04:23:26;;;;;;;13.48;10.23;;;;;;;17.69;89.25;100944.41;5046858;28;20097;-83
2021/06/25 04:25:53;;;;;;;11.75;9.65;;;;;;;17.75;89.22;100954.59;5052684;28;20376;-82
2021/06/25 04:28:21;;;;;;;13.20;10.85;;;;;;;17.81;89.01;100955.91;5060561;28;20064;-81
2021/06/25 04:30:49;;;;;;;12.35;10.05;;;;;;;17.94;88.09;100960.06;5059474;28;20224;-81
2021/06/25 04:33:16;;;;;;;15.10;11.18;;;;;;;17.99;88.40;100957.00;5056291;28;20036;-82
2021/06/25 04:35:44;;;;;;;13.57;10.65;;;;;;;18.07;87.49;100961.69;5063887;28;20067;-82
2021/06/25 04:38:12;;;;;;;16.02;10.73;;;;;;;18.12;86.92;100960.31;5026443;28;20068;-81
2021/06/25 04:40:42;;;;;;;15.55;10.85;;;;;;;18.23;86.70;100954.91;5039488;28;20127;-83
2021/06/25 04:43:11;;;;;;;15.90;10.90;;;;;;;18.38;85.94;100955.44;5057467;28;20036;-83
2021/06/25 04:45:39;;;;;;;15.80;8.63;;;;;;;18.34;84.23;100948.66;5041292;28;20054;-84
2021/06/25 04:48:10;;;;;;;12.38;8.68;;;;;;;18.49;82.97;100943.81;5066157;28;21131;-82
2021/06/25 04:50:38;;;;;;;9.48;7.80;;;;;;;18.51;82.28;100949.88;5057930;28;20054;-82
2021/06/25 04:53:06;;;;;;;11.63;8.63;;;;;;;18.48;81.71;100945.66;5031720;28;20032;-83
2021/06/25 04:55:43;;;;;;;15.35;8.27;;;;;;;18.39;81.85;100954.44;5034751;28;20136;-83
2021/06/25 04:58:12;;;;;;;16.65;8.02;;;;;;;18.57;81.40;100956.50;5057925;28;20141;-82
2021/06/25 05:00:59;;;;;;;9.73;7.78;;;;;;;18.65;80.21;100952.19;5056155;28;20048;-81
2021/06/25 05:03:27;;;;;;;13.38;8.73;;;;;;;18.70;79.19;100959.81;5072378;28;20052;-81
2021/06/25 05:05:55;;;;;;;9.18;7.07;;;;;;;18.78;79.05;100961.78;5075197;28;20156;-83
2021/06/25 05:08:22;;;;;;;11.93;7.68;;;;;;;18.57;79.05;100960.00;5068705;28;20374;-82
2021/06/25 05:10:49;;;;;;;13.05;6.78;;;;;;;18.67;78.52;100963.53;5045632;28;20139;-82
2021/06/25 05:13:17;;;;;;;17.23;6.60;;;;;;;18.41;79.27;100963.13;5021046;28;20131;-81
2021/06/25 05:15:44;;;;;;;12.77;6.88;;;;;;;18.48;78.82;100971.47;5065735;28;20056;-81
2021/06/25 05:18:19;;;;;;;18.13;7.00;;;;;;;18.46;78.71;100962.75;5076993;28;20147;-84
2021/06/25 05:21:06;;;;;;;16.60;5.82;;;;;;;18.76;78.38;100961.09;5056714;28;20044;-81
2021/06/25 05:23:34;;;;;;;11.77;6.75;;;;;;;18.90;77.29;100964.22;5040261;28;20059;-84
2021/06/25 05:26:03;;;;;;;8.50;6.13;;;;;;;18.99;77.31;100965.22;5066579;28;20052;-83
2021/06/25 05:28:30;;;;;;;11.00;6.88;;;;;;;19.16;76.61;100955.72;5047798;28;20044;-83
2021/06/25 05:31:03;;;;;;;13.65;7.70;;;;;;;19.28;75.99;100951.13;5035149;28;20138;-82
2021/06/25 05:33:30;;;;;;;12.88;7.50;;;;;;;19.40;75.17;100949.97;5045392;28;20123;-82
2021/06/25 05:35:58;;;;;;;14.70;6.88;;;;;;;19.49;74.70;100952.66;5082579;28;20052;-81
2021/06/25 05:38:26;;;;;;;9.93;6.80;;;;;;;19.47;74.93;100959.13;5064620;28;20445;-81
2021/06/25 05:40:56;;;;;;;14.15;8.20;;;;;;;19.34;74.79;100959.41;5076155;28;20132;-81
2021/06/25 05:43:27;;;;;;;11.13;7.40;;;;;;;19.46;74.81;100960.97;5065741;28;20060;-81
2021/06/25 05:45:55;;;;;;;12.93;8.40;;;;;;;19.49;74.70;100963.31;5078990;28;20107;-82
2021/06/25 05:48:22;;;;;;;12.68;7.43;;;;;;;19.73;73.62;100962.97;5077523;28;20044;-83
2021/06/25 05:50:49;;;;;;;14.90;7.70;;;;;;;19.72;73.22;100958.59;5060243;28;20649;-83
2021/06/25 05:53:17;;;;;;;13.32;7.43;;;;;;;19.94;72.66;100967.28;5066988;28;20093;-83
2021/06/25 05:55:44;;;;;;;12.40;8.27;;;;;;;20.26;70.94;100964.25;5076516;28;20119;-83
2021/06/25 05:58:11;;;;;;;11.25;8.40;;;;;;;20.14;71.22;100962.75;5083070;28;20094;-81
2021/06/25 06:00:39;;;;;;;13.63;8.45;;;;;;;20.13;71.73;100959.25;5064413;28;20521;-82
2021/06/25 06:03:06;;;;;;;19.83;8.95;;;;;;;20.13;71.08;100963.75;5063014;28;20448;-83
2021/06/25 06:05:35;;;;;;;10.57;8.27;;;;;;;20.21;70.99;100967.38;5064282;28;20673;-82
2021/06/25 06:08:03;;;;;;;11.13;7.90;;;;;;;20.59;69.24;100973.63;5053319;28;20087;-82
2021/06/25 06:10:31;;;;;;;15.40;8.07;;;;;;;20.94;68.66;100964.06;5055335;28;20127;-85
2021/06/25 06:12:59;;;;;;;10.93;7.43;;;;;;;21.09;67.03;100967.06;5054399;28;20050;-83
2021/06/25 06:15:27;;;;;;;17.00;8.00;;;;;;;21.04;67.18;100972.03;5036877;28;20523;-83
2021/06/25 06:17:56;;;;;;;15.18;7.72;;;;;;;21.34;65.72;100968.16;5046695;28;20147;-81
2021/06/25 06:20:27;;;;;;;17.98;8.27;;;;;;;21.06;65.95;100975.38;5050944;28;20072;-82
2021/06/25 06:31:24;;;;;;;10.77;7.00;;;;;;;21.33;63.54;100985.25;5068666;28;20048;-82
2021/06/25 06:33:54;;;;;;;11.13;7.85;;;;;;;21.09;64.39;100986.63;5066214;28;20081;-81
2021/06/25 06:36:33;;;;;;;13.95;8.20;;;;;;;20.79;65.31;100986.94;5062007;28;20059;-82
2021/06/25 06:39:02;;;;;;;19.73;7.32;;;;;;;20.96;65.41;100983.47;5047119;28;20131;-81
2021/06/25 06:41:30;;;;;;;17.05;8.20;;;;;;;20.81;65.51;100987.63;5074273;28;20047;-83
2021/06/25 06:43:59;;;;;;;15.50;7.72;;;;;;;20.73;65.27;100996.38;5071325;28;20500;-84
2021/06/25 06:46:26;;;;;;;11.65;6.82;;;;;;;20.89;65.15;100985.03;5024856;28;20111;-84
2021/06/25 06:48:54;;;;;;;16.10;7.38;;;;;;;21.37;64.27;100982.09;5053314;28;20527;-84
2021/06/25 06:51:21;;;;;;;14.55;8.00;;;;;;;21.38;63.69;100980.28;5063129;28;20230;-83
2021/06/25 06:53:49;;;;;;;14.13;7.85;;;;;;;21.53;62.77;100984.13;5055979;28;20074;-84
2021/06/25 06:56:19;;;;;;;11.88;7.93;;;;;;;21.58;62.77;100992.53;5063050;28;20143;-82
2021/06/25 06:58:48;;;;;;;12.65;7.22;;;;;;;21.54;61.62;100984.97;5059441;28;20512;-81
2021/06/25 07:01:15;;;;;;;15.45;8.27;;;;;;;21.41;62.27;100986.19;5061414;28;20079;-82
2021/06/25 07:04:03;;;;;;;18.33;7.45;;;;;;;22.03;60.57;100991.59;5064684;28;20051;-84
2021/06/25 07:06:30;;;;;;;15.55;7.80;;;;;;;22.36;58.98;100987.31;5079001;28;20033;-83
2021/06/25 07:08:57;;;;;;;12.45;7.03;;;;;;;22.49;58.70;100992.25;5058279;28;20458;-82
2021/06/25 07:11:25;;;;;;;12.07;6.97;;;;;;;22.61;58.54;100993.69;5066310;28;20025;-84
2021/06/25 07:13:52;;;;;;;12.88;7.65;;;;;;;22.19;59.05;100994.41;5069470;28;20464;-84
2021/06/25 07:16:19;;;;;;;12.45;7.47;;;;;;;22.24;58.37;100999.28;5060187;28;20128;-83
2021/06/25 07:18:47;;;;;;;10.43;7.28;;;;;;;21.83;59.25;101006.16;5049101;28;20037;-83
2021/06/25 07:21:16;;;;;;;13.40;6.55;;;;;;;21.46;61.58;101001.78;5055512;28;20071;-85
2021/06/25 07:23:43;;;;;;;10.75;6.70;;;;;;;21.42;61.06;101006.59;5061738;28;20524;-83
2021/06/25 07:26:10;;;;;;;14.25;7.25;;;;;;;21.42;61.79;101005.75;5060471;28;20112;-84
2021/06/25 07:28:37;;;;;;;9.73;6.57;;;;;;;21.48;61.58;101000.66;5060984;28;20041;-83
2021/06/25 07:31:04;;;;;;;10.52;6.68;;;;;;;20.76;62.42;101017.50;5075179;28;20148;-84
2021/06/25 07:33:33;;;;;;;16.58;6.45;;;;;;;20.91;62.33;101012.50;5040206;28;20087;-84
2021/06/25 07:36:00;;;;;;;13.50;6.90;;;;;;;20.90;62.36;101022.38;5064020;28;20404;-83
2021/06/25 07:38:30;;;;;;;14.52;6.68;;;;;;;21.05;61.49;101017.38;5059513;28;20052;-84
2021/06/25 07:40:57;;;;;;;13.05;6.40;;;;;;;21.19;61.23;101016.88;5054881;28;20144;-84
2021/06/25 07:43:24;;;;;;;11.93;6.38;;;;;;;21.33;60.78;101004.81;5058652;28;20044;-84
2021/06/25 07:45:52;;;;;;;13.13;5.82;;;;;;;21.29;60.13;101008.75;5047029;28;20528;-83
2021/06/25 07:48:19;;;;;;;12.27;7.18;;;;;;;21.15;61.27;101018.16;5053696;28;20036;-83
2021/06/25 07:50:46;;;;;;;14.75;6.97;;;;;;;20.85;62.61;101011.28;5072734;28;20087;-83
2021/06/25 07:53:14;;;;;;;13.93;7.70;;;;;;;20.99;62.67;101015.28;5061901;28;20130;-83
2021/06/25 07:55:44;;;;;;;12.65;6.15;;;;;;;21.22;62.47;101005.03;5060658;28;20075;-83
2021/06/25 07:58:12;;;;;;;9.63;6.03;;;;;;;21.65;59.99;101008.84;5087408;28;20087;-83
2021/06/25 08:00:39;;;;;;;13.70;6.10;;;;;;;22.22;57.56;101009.34;5049096;28;20083;-82
2021/06/25 08:03:07;;;;;;;16.27;5.55;;;;;;;23.53;52.11;100997.38;5044984;28;20151;-85
2021/06/25 08:05:35;;;;;;;14.10;5.72;;;;;;;24.02;49.51;101001.97;5065096;28;20036;-84
2021/06/25 08:08:03;;;;;;;10.88;5.13;;;;;;;26.12;44.39;100997.69;5054110;28;20192;-83
2021/06/25 08:10:30;;;;;;;10.25;5.10;;;;;;;26.32;43.65;100992.59;5066695;28;20119;-82
2021/06/25 08:12:58;;;;;;;8.10;5.22;;;;;;;27.51;40.21;100996.88;5052486;28;20052;-84
2021/06/25 08:15:26;;;;;;;7.45;4.93;;;;;;;28.32;39.18;101000.09;5063122;28;20054;-84
2021/06/25 08:17:53;;;;;;;10.70;5.32;;;;;;;30.37;35.37;100985.53;5068396;28;20052;-85
2021/06/25 08:20:20;;;;;;;11.77;5.35;;;;;;;31.74;32.86;100985.13;5068723;28;20055;-85
2021/06/25 08:22:48;;;;;;;9.80;5.47;;;;;;;31.32;32.08;100986.69;5063349;28;20044;-86
2021/06/25 08:25:15;;;;;;;10.40;4.47;;;;;;;33.10;29.86;100986.13;5072421;28;20040;-82
2021/06/25 08:27:42;;;;;;;8.57;4.75;;;;;;;31.60;32.39;100985.47;5062047;28;20078;-84
2021/06/25 08:30:10;;;;;;;8.25;4.40;;;;;;;31.85;32.15;100978.19;5066292;28;20489;-83
2021/06/25 08:32:38;;;;;;;7.95;5.05;;;;;;;31.67;31.89;100980.81;5054810;28;20124;-84
2021/06/25 08:35:06;;;;;;;11.25;5.22;;;;;;;29.75;34.46;100974.88;5075924;28;20140;-84
2021/06/25 08:37:33;;;;;;;8.55;4.90;;;;;;;29.50;35.23;100979.22;5051698;28;20646;-83
2021/06/25 08:40:02;;;;;;;8.40;5.45;;;;;;;28.95;36.18;100981.09;5046793;28;20062;-84
2021/06/25 08:42:29;;;;;;;8.77;5.07;;;;;;;28.72;36.27;100984.97;5032135;28;20079;-85
2021/06/25 08:44:57;;;;;;;9.23;6.18;;;;;;;28.34;36.35;100984.50;5046275;28;20567;-84
2021/06/25 08:47:26;;;;;;;9.02;5.25;;;;;;;28.64;37.06;100984.28;5045212;28;20437;-84
2021/06/25 08:50:02;;;;;;;10.93;6.30;;;;;;;28.40;36.55;100982.91;5070463;28;20469;-85
2021/06/25 08:52:30;;;;;;;11.13;5.78;;;;;;;27.94;37.82;100984.22;5065528;28;20054;-85
2021/06/25 08:54:57;;;;;;;9.85;5.53;;;;;;;27.56;38.87;100988.19;5056815;28;20084;-84
2021/06/25 08:57:24;;;;;;;8.75;5.47;;;;;;;26.60;40.97;100980.16;5065951;28;20044;-85
2021/06/25 08:59:51;;;;;;;10.80;6.30;;;;;;;26.15;41.15;100981.13;5040669;28;20230;-86
2021/06/25 09:02:19;;;;;;;9.45;6.38;;;;;;;25.49;42.68;100986.19;5028376;28;20057;-84
2021/06/25 09:04:47;;;;;;;5.75;4.65;;;;;;;25.12;43.15;100982.34;5046374;28;20087;-85
2021/06/25 09:07:14;;;;;;;10.30;4.93;;;;;;;25.38;42.65;100976.66;5064707;28;20124;-86
2021/06/25 09:09:46;;;;;;;11.00;5.53;;;;;;;25.04;44.01;100979.69;5050258;28;20549;-85
2021/06/25 09:12:21;;;;;;;8.60;5.10;;;;;;;24.53;45.30;100981.06;5051751;28;20604;-85
2021/06/25 09:15:00;;;;;;;14.35;5.22;;;;;;;24.63;45.76;100979.00;5016813;28;20064;-85
2021/06/25 09:17:28;;;;;;;11.32;6.07;;;;;;;24.88;44.64;100974.38;5033831;28;20048;-86
2021/06/25 09:19:55;;;;;;;9.82;5.68;;;;;;;24.69;45.25;100979.16;5055728;28;20144;-84
2021/06/25 09:22:23;;;;;;;11.15;6.45;;;;;;;25.11;45.03;100967.22;5080600;28;20183;-85
2021/06/25 09:25:06;;;;;;;10.38;6.07;;;;;;;24.98;45.29;100975.81;5066625;28;20164;-83
2021/06/25 09:27:34;;;;;;;10.90;6.75;;;;;;;25.68;43.60;100968.69;5055688;28;20072;-85
2021/06/25 09:30:12;;;;;;;12.40;7.28;;;;;;;26.18;42.61;100960.00;5021044;28;20135;-85
2021/06/25 09:32:43;;;;;;;9.75;6.07;;;;;;;26.45;41.57;100955.03;5047010;28;20076;-86
2021/06/25 09:35:16;;;;;;;8.52;6.82;;;;;;;25.76;42.81;100963.28;5031656;28;20039;-84
2021/06/25 09:37:47;;;;;;;14.32;6.30;;;;;;;25.71;42.78;100960.22;5038458;28;20498;-84
2021/06/25 09:40:16;;;;;;;9.95;6.07;;;;;;;26.20;42.10;100957.13;5013342;28;20094;-85
2021/06/25 09:42:46;;;;;;;10.45;7.00;;;;;;;25.39;43.66;100966.72;5045119;28;20166;-83
2021/06/25 09:45:15;;;;;;;10.43;6.43;;;;;;;24.92;44.29;100962.25;5055650;28;20040;-84
2021/06/25 09:47:54;;;;;;;8.85;6.28;;;;;;;25.61;43.36;100959.63;5042920;28;20044;-84
2021/06/25 09:50:25;;;;;;;11.02;6.78;;;;;;;26.12;41.71;100962.63;5061563;28;20318;-84
2021/06/25 09:53:04;;;;;;;11.48;7.63;;;;;;;25.59;42.87;100967.91;5041080;28;20139;-86
2021/06/25 09:55:52;;;;;;;9.93;7.57;;;;;;;26.38;41.64;100963.00;5032355;28;20045;-84
2021/06/25 09:58:39;;;;;;;10.65;6.88;;;;;;;26.57;41.29;100958.09;5030418;28;20404;-85
2021/06/25 10:03:52;;;;;;;11.45;7.00;;;;;;;26.22;41.83;100955.09;5050099;28;20403;-85
2021/06/25 10:06:21;;;;;;;13.73;7.00;;;;;;;26.12;42.38;100955.34;5055750;28;20028;-85
2021/06/25 10:08:49;;;;;;;9.38;6.57;;;;;;;25.40;43.31;100965.72;5058874;28;20044;-86
2021/06/25 10:11:20;;;;;;;11.23;6.43;;;;;;;25.08;42.54;100958.63;5055698;28;20049;-85
2021/06/25 10:13:50;;;;;;;8.95;6.32;;;;;;;25.18;42.85;100964.66;5041102;28;20094;-85
2021/06/25 10:16:17;;;;;;;9.90;5.97;;;;;;;25.21;42.61;100958.91;5068423;28;20488;-84
2021/06/25 10:18:52;;;;;;;8.88;5.13;;;;;;;25.13;43.08;100967.91;5060242;28;20052;-85
2021/06/25 10:21:20;;;;;;;;;;;;;;;25.37;41.94;100963.38;5065901;28;20082;-83
2021/06/25 10:23:56;;;;;;;5.93;4.30;;;;;;;25.55;41.45;100961.22;5063867;28;19920;-84
2021/06/25 10:26:24;;;;;;;13.45;5.40;;;;;;;25.13;42.28;100962.50;5064557;28;20032;-83
2021/06/25 10:28:53;;;;;;;6.13;4.95;;;;;;;24.99;42.98;100965.88;5068756;28;20057;-85
2021/06/25 10:31:23;;;;;;;6.97;5.28;;;;;;;25.31;41.76;100964.06;5055928;28;20083;-84
2021/06/25 10:33:52;;;;;;;8.48;5.10;;;;;;;25.41;42.25;100960.13;5058014;28;20420;-85
2021/06/25 10:36:22;;;;;;;10.00;5.88;;;;;;;25.09;42.61;100963.88;5030577;28;20139;-84
2021/06/25 10:38:50;;;;;;;7.45;5.00;;;;;;;25.07;43.09;100960.47;5056870;28;20063;-84
2021/06/25 10:41:19;;;;;;;7.95;4.78;;;;;;;25.44;42.82;100957.09;5044079;28;20063;-85
2021/06/25 10:43:51;;;;;;;10.32;5.20;;;;;;;25.93;41.13;100958.56;5058101;28;20083;-85
2021/06/25 10:46:34;;;;;;;7.05;5.32;;;;;;;26.34;39.62;100958.16;5059053;28;20049;-84
2021/06/25 10:49:13;;;;;;;7.63;5.45;;;;;;;26.31;39.98;100964.78;5071624;28;20136;-84
2021/06/25 10:51:43;;;;;;;7.25;5.72;;;;;;;26.53;39.43;100962.22;5048899;28;20052;-86
2021/06/25 10:54:20;;;;;;;9.10;5.00;;;;;;;25.25;42.39;100957.53;5052279;28;20062;-84
2021/06/25 10:56:48;;;;;;;12.25;5.18;;;;;;;25.40;42.27;100955.75;5056792;28;20048;-84
2021/06/25 10:59:26;;;;;;;7.50;5.18;;;;;;;25.67;41.82;100962.47;5054198;28;20306;-85
2021/06/25 11:01:56;;;;;;;9.80;5.55;;;;;;;25.66;41.56;100960.78;5067985;28;20041;-85
2021/06/25 11:04:42;;;;;;;19.65;5.70;;;;;;;25.95;41.02;100967.31;5037742;28;20082;-86
2021/06/25 11:07:10;;;;;;;9.60;6.75;;;;;;;26.79;39.70;100943.63;5039143;28;20033;-85
2021/06/25 11:09:51;;;;;;;8.68;6.15;;;;;;;27.56;38.19;100963.84;5042397;28;20080;-86
2021/06/25 11:12:21;;;;;;;9.65;6.57;;;;;;;26.41;38.65;100961.78;5019305;28;20057;-85
2021/06/25 11:14:53;;;;;;;10.30;5.85;;;;;;;25.72;40.38;100957.38;5035821;28;20079;-85
2021/06/25 11:17:50;;;;;;;8.38;5.20;;;;;;;25.74;40.56;100963.41;5022689;28;20064;-86
2021/06/25 11:20:32;;;;;;;7.80;5.05;;;;;;;25.73;39.00;100955.50;5027759;28;20488;-83
2021/06/25 11:23:12;;;;;;;7.63;3.88;;;;;;;25.38;39.82;100963.19;5033368;28;20063;-84
2021/06/25 11:25:40;;;;;;;7.57;3.78;;;;;;;25.95;38.01;100953.84;5048270;28;20053;-83
2021/06/25 11:28:26;;;;;;;10.07;4.57;;;;;;;25.88;38.44;100947.47;5055526;28;20055;-85
2021/06/25 11:31:07;;;;;;;9.60;4.30;;;;;;;25.58;39.24;100958.16;5039204;28;20067;-84
2021/06/25 11:33:47;;;;;;;7.97;4.70;;;;;;;25.11;39.61;100959.13;5043972;28;20036;-86
2021/06/25 11:36:14;;;;;;;8.98;5.22;;;;;;;25.15;40.14;100954.22;5038794;28;20490;-82
2021/06/25 11:38:59;;;;;;;8.48;4.22;;;;;;;25.36;40.28;100950.91;5035841;28;20049;-86
2021/06/25 11:41:46;;;;;;;12.13;5.05;;;;;;;25.48;40.56;100952.16;5042335;28;20040;-84